Strona główna
METAR-TAF:

METAR-TAF

Lotnisko :

Port lotniczy Asjut

Asjut, Egipt

Szerokość geograficzna: 27-03N, Długość geograficzna: 031-01E, wysokość: 226 m

Aktualna obserwacja pogody

Raport powstał 1 godzina i 22 minut temu, godzina 00:00 UTC
Wiatr 15 kt od południe
Temperatura 22°C
Wilgotność 38%
Ciśnienie 1011 hPa
Widzialność 10 km lub więcej
Brak chmur poniżej 1500 m i brak chmur cumulonimbus

METAR: HEAT 050000Z 17015KT CAVOK 22/07 Q1011 NOSIG

czas: 03:22 (01:22 UTC)

Prognoza

Raport powstał 2 godziny i 22 minut temu, godzina 23:00 UTC
Prognoza ważna od 05 godzina 00 UTC do 06 godzina 06 UTC
Wiatr 12 kt od południe
Widzialność: 6000 m
Przejściowo
od 05 godzina 00 UTC do 05 godzina 06 UTC
Widzialność: 3000 m
piasek

TAF: HEAT 042300Z 0500/0606 17012KT 6000 NSC TEMPO 0500/0506 3000 SA

Obserwacja i prognoza pogody dla ponad 4000 lotnisk (raport METAR i TAF).

Dostępne stacje oznaczono żółtymi i czerwonymi punktami na mapie.

Najedź kursorem aby zobaczyć nazwę stacji.

Kliknij aby zobaczyć obserwacje i prognozy pogody.

Aby zmienić mapę: kliknij na zielony przycisk z czarnym krzyżykiem, aby powiększyć; na zielony przycisk z myślnikiem, aby pomniejszyć; na zielone strzałki, aby przejść do map sąsiednich.


METAR-TAF: